createdAt,value
2023-04-17T00:02:20.123Z,6.24
2023-04-17T00:04:48.647Z,6.27
2023-04-17T00:07:16.670Z,6.30
2023-04-17T00:09:44.282Z,6.32
2023-04-17T00:12:11.920Z,6.35
2023-04-17T00:14:39.606Z,6.38
2023-04-17T00:17:07.724Z,6.41
2023-04-17T00:19:35.467Z,6.43
2023-04-17T00:22:03.140Z,6.48
2023-04-17T00:24:31.171Z,6.49
2023-04-17T00:26:58.815Z,6.53
2023-04-17T00:29:26.433Z,6.55
2023-04-17T00:31:54.106Z,6.58
2023-04-17T00:34:21.791Z,6.58
2023-04-17T00:36:49.851Z,6.60
2023-04-17T00:39:17.660Z,6.62
2023-04-17T00:41:45.473Z,6.62
2023-04-17T00:44:14.042Z,6.63
2023-04-17T00:46:42.000Z,6.64
2023-04-17T00:49:10.998Z,6.67
2023-04-17T00:51:38.800Z,6.67
2023-04-17T00:54:07.401Z,6.69
2023-04-17T00:56:35.506Z,6.71
2023-04-17T00:59:06.097Z,6.74
2023-04-17T01:01:33.872Z,6.77
2023-04-17T01:04:07.520Z,6.79
2023-04-17T01:06:36.544Z,6.79
2023-04-17T01:09:04.281Z,6.80
2023-04-17T01:11:32.033Z,6.82
2023-04-17T01:14:00.291Z,6.84
2023-04-17T01:16:30.692Z,6.84
2023-04-17T01:18:59.649Z,6.84
2023-04-17T01:21:27.655Z,6.85
2023-04-17T01:24:02.580Z,6.87
2023-04-17T01:26:32.721Z,6.89
2023-04-17T01:29:00.849Z,6.91
2023-04-17T01:31:30.116Z,6.91
2023-04-17T01:33:57.910Z,6.91
2023-04-17T01:36:25.612Z,6.92
2023-04-17T01:38:53.232Z,6.95
2023-04-17T01:41:20.915Z,6.97
2023-04-17T01:43:48.973Z,6.98
2023-04-17T01:46:16.657Z,6.98
2023-04-17T01:48:44.623Z,6.99
2023-04-17T01:51:12.312Z,7.02
2023-04-17T01:53:40.093Z,7.01
2023-04-17T01:56:07.932Z,7.01
2023-04-17T01:58:36.015Z,7.00
2023-04-17T02:01:04.204Z,6.99
2023-04-17T02:03:32.172Z,6.98
2023-04-17T02:06:00.124Z,6.98
2023-04-17T02:08:27.840Z,6.98
2023-04-17T02:10:56.033Z,6.97
2023-04-17T02:13:24.130Z,6.94
2023-04-17T02:15:52.256Z,6.95
2023-04-17T02:18:20.766Z,6.97
2023-04-17T02:20:48.915Z,6.98
2023-04-17T02:23:16.627Z,6.96
2023-04-17T02:25:44.249Z,6.96
2023-04-17T02:28:11.934Z,6.99
2023-04-17T02:30:39.723Z,7.00
2023-04-17T02:33:07.553Z,7.01
2023-04-17T02:35:35.459Z,7.00
2023-04-17T02:38:03.280Z,7.00
2023-04-17T02:40:33.140Z,7.00
2023-04-17T02:43:02.484Z,7.01
2023-04-17T02:45:30.783Z,7.02
2023-04-17T02:47:58.633Z,7.02
2023-04-17T02:50:26.603Z,7.00
2023-04-17T02:53:05.176Z,6.99
2023-04-17T02:55:32.985Z,6.98
2023-04-17T02:58:00.932Z,6.98
2023-04-17T03:00:29.532Z,6.97
2023-04-17T03:02:57.500Z,6.97
2023-04-17T03:05:25.880Z,6.96
2023-04-17T03:07:54.681Z,6.94
2023-04-17T03:10:22.585Z,6.90
2023-04-17T03:12:50.379Z,6.85
2023-04-17T03:15:18.067Z,6.81
2023-04-17T03:17:46.108Z,6.78
2023-04-17T03:44:19.454Z,6.99
2023-04-17T03:46:47.195Z,6.96
2023-04-17T03:49:15.452Z,6.93
2023-04-17T03:51:43.856Z,6.88
2023-04-17T03:54:16.168Z,6.85
2023-04-17T03:56:44.582Z,6.83
2023-04-17T03:59:12.633Z,6.80
2023-04-17T04:01:45.375Z,6.78
2023-04-17T04:04:18.644Z,6.77
2023-04-17T04:33:36.968Z,7.68
2023-04-17T04:36:03.704Z,7.78
2023-04-17T04:38:31.881Z,7.79
2023-04-17T04:41:05.260Z,7.80
2023-04-17T04:43:32.894Z,7.84
2023-04-17T04:46:00.051Z,7.86
2023-04-17T04:48:28.282Z,7.89
2023-04-17T04:50:57.470Z,7.93
2023-04-17T04:53:24.295Z,7.97
2023-04-17T04:55:56.740Z,8.01
2023-04-17T04:58:23.345Z,8.04
2023-04-17T05:00:51.590Z,8.05
2023-04-17T05:03:25.743Z,8.07
2023-04-17T05:05:52.704Z,8.10
2023-04-17T05:08:19.623Z,8.12
2023-04-17T05:10:52.756Z,8.15
2023-04-17T05:13:19.222Z,8.16
2023-04-17T05:15:45.520Z,8.19
2023-04-17T05:18:12.116Z,8.23
2023-04-17T05:20:38.627Z,8.25
2023-04-17T05:23:05.493Z,8.26
2023-04-17T05:25:31.818Z,8.28
2023-04-17T05:27:58.288Z,8.32
2023-04-17T05:30:24.617Z,8.36
2023-04-17T05:32:59.054Z,8.40
2023-04-17T05:35:41.159Z,8.44
2023-04-17T05:38:09.043Z,8.46
2023-04-17T05:40:35.753Z,8.49
2023-04-17T05:43:10.440Z,8.50
2023-04-17T05:45:38.416Z,8.52
2023-04-17T05:48:07.897Z,8.54
2023-04-17T05:50:36.708Z,8.58
2023-04-17T05:53:03.872Z,8.62
2023-04-17T05:55:33.745Z,8.65
2023-04-17T05:58:10.530Z,8.66
2023-04-17T06:00:47.919Z,8.71
2023-04-17T06:03:18.198Z,8.74
2023-04-17T06:05:46.298Z,8.80
2023-04-17T06:08:12.620Z,8.89
2023-04-17T06:10:38.998Z,8.97
2023-04-17T06:13:05.280Z,9.04
2023-04-17T06:15:31.558Z,9.10
2023-04-17T06:17:57.918Z,9.15
2023-04-17T06:20:24.214Z,9.23
2023-04-17T06:22:50.547Z,9.31
2023-04-17T06:25:17.592Z,9.41
2023-04-17T06:27:45.135Z,9.49
2023-04-17T06:30:12.429Z,9.57
2023-04-17T06:32:49.973Z,9.63
2023-04-17T06:35:18.477Z,9.71
2023-04-17T06:37:48.484Z,9.77
2023-04-17T06:40:14.788Z,9.82
2023-04-17T06:42:41.049Z,9.95
2023-04-17T06:45:11.646Z,10.10
2023-04-17T06:47:38.113Z,10.21
2023-04-17T06:50:05.129Z,10.32
2023-04-17T06:52:31.405Z,10.41
2023-04-17T06:54:57.879Z,10.54
2023-04-17T06:57:24.234Z,10.71
2023-04-17T06:59:50.790Z,10.96
2023-04-17T07:02:17.316Z,11.17
2023-04-17T07:04:43.941Z,11.26
2023-04-17T07:07:10.430Z,11.35
2023-04-17T07:09:36.687Z,11.40
2023-04-17T07:12:03.169Z,11.37
2023-04-17T07:14:30.020Z,11.40
2023-04-17T07:16:56.282Z,11.53
2023-04-17T07:19:22.675Z,11.62
2023-04-17T07:21:48.877Z,11.71
2023-04-17T07:24:15.160Z,11.85
2023-04-17T07:26:42.672Z,12.11
2023-04-17T07:29:08.928Z,12.29
2023-04-17T07:31:35.375Z,12.40
2023-04-17T07:34:01.713Z,12.46
2023-04-17T07:36:29.191Z,12.70
2023-04-17T07:38:55.404Z,13.00
2023-04-17T07:41:21.683Z,13.18
2023-04-17T07:43:48.533Z,13.36
2023-04-17T07:46:14.813Z,13.37
2023-04-17T07:48:41.153Z,13.42
2023-04-17T07:51:07.527Z,13.61
2023-04-17T07:53:35.550Z,13.67
2023-04-17T07:56:01.916Z,13.63
2023-04-17T07:58:28.384Z,13.55
2023-04-17T08:00:54.756Z,13.55
2023-04-17T08:03:21.796Z,13.59
2023-04-17T08:05:48.648Z,13.66
2023-04-17T08:08:15.468Z,13.57
2023-04-17T08:10:41.687Z,13.51
2023-04-17T08:13:07.922Z,13.58
2023-04-17T08:15:34.421Z,13.70
2023-04-17T08:18:00.817Z,13.70
2023-04-17T08:20:27.403Z,13.59
2023-04-17T08:22:53.674Z,13.49
2023-04-17T08:25:20.416Z,13.35
2023-04-17T08:27:47.000Z,13.22
2023-04-17T08:30:16.225Z,13.17
2023-04-17T08:32:46.646Z,13.07
2023-04-17T08:35:14.297Z,13.05
2023-04-17T08:37:42.029Z,12.99
2023-04-17T08:40:09.156Z,12.90
2023-04-17T08:42:36.965Z,12.87
2023-04-17T08:45:08.896Z,12.82
2023-04-17T08:47:39.182Z,12.75
2023-04-17T08:50:15.234Z,12.76
2023-04-17T08:52:43.162Z,12.90
2023-04-17T08:55:19.107Z,12.91
2023-04-17T08:58:03.189Z,12.92
2023-04-17T09:00:33.825Z,12.90
2023-04-17T09:03:03.324Z,12.93
2023-04-17T09:05:35.954Z,12.95
2023-04-17T09:08:07.271Z,13.01
2023-04-17T09:10:42.617Z,13.06
2023-04-17T09:13:11.508Z,13.08
2023-04-17T09:15:37.825Z,13.19
2023-04-17T09:18:04.337Z,13.30
2023-04-17T09:20:31.256Z,13.48
2023-04-17T09:23:00.272Z,13.72
2023-04-17T09:25:27.600Z,13.80
2023-04-17T09:28:00.784Z,13.87
2023-04-17T09:30:27.080Z,13.91
2023-04-17T09:33:04.595Z,13.87
2023-04-17T09:35:32.761Z,13.97
2023-04-17T09:37:59.387Z,14.01
2023-04-17T09:40:27.997Z,14.08
2023-04-17T09:42:58.456Z,14.12
2023-04-17T09:45:27.513Z,14.09
2023-04-17T09:47:56.526Z,14.05
2023-04-17T09:50:26.342Z,13.96
2023-04-17T09:52:55.225Z,13.93
2023-04-17T09:55:23.407Z,13.80
2023-04-17T09:57:55.375Z,13.80
2023-04-17T10:00:24.886Z,13.78
2023-04-17T10:02:53.471Z,13.82
2023-04-17T10:05:22.084Z,13.82
2023-04-17T10:07:48.738Z,13.84
2023-04-17T10:10:32.638Z,13.83
2023-04-17T10:13:01.730Z,13.87
2023-04-17T10:15:29.841Z,14.03
2023-04-17T10:18:19.128Z,14.27
2023-04-17T10:20:47.978Z,14.56
2023-04-17T10:23:32.496Z,14.67
2023-04-17T10:26:25.692Z,14.67
2023-04-17T10:28:53.387Z,14.63
2023-04-17T10:31:22.507Z,14.62
2023-04-17T10:33:53.509Z,14.67
2023-04-17T10:36:37.864Z,14.77
2023-04-17T10:39:15.627Z,14.94
2023-04-17T10:42:01.973Z,15.18
2023-04-17T10:44:35.241Z,15.39
2023-04-17T10:47:09.406Z,15.50
2023-04-17T10:49:57.597Z,15.61
2023-04-17T10:52:39.307Z,15.55
2023-04-17T10:55:07.161Z,15.51
2023-04-17T10:57:51.925Z,15.52
2023-04-17T11:00:20.984Z,15.63
2023-04-17T11:02:49.576Z,15.64
2023-04-17T11:05:20.556Z,15.61
2023-04-17T11:07:51.031Z,15.54
2023-04-17T11:10:19.126Z,15.69
2023-04-17T11:12:52.535Z,16.00
2023-04-17T11:15:30.000Z,16.09
2023-04-17T11:17:57.964Z,16.11
2023-04-17T11:20:30.159Z,16.13
2023-04-17T11:23:01.018Z,16.13
2023-04-17T11:25:32.878Z,16.02
2023-04-17T11:28:05.049Z,15.93
2023-04-17T11:30:36.474Z,15.97
2023-04-17T11:33:05.435Z,16.02
2023-04-17T11:35:34.116Z,16.06
2023-04-17T11:38:21.684Z,16.07
2023-04-17T11:40:54.082Z,16.02
2023-04-17T11:43:22.291Z,16.00
2023-04-17T11:45:58.842Z,16.05
2023-04-17T11:48:29.449Z,16.08
2023-04-17T11:50:58.505Z,16.07
2023-04-17T11:53:25.009Z,16.00
2023-04-17T11:56:13.090Z,15.90
2023-04-17T11:58:52.654Z,15.82
2023-04-17T12:01:23.840Z,15.63
2023-04-17T12:03:51.239Z,15.36
2023-04-17T12:06:17.790Z,15.18
2023-04-17T12:08:52.845Z,14.99
2023-04-17T12:11:26.648Z,14.84
2023-04-17T12:13:53.837Z,14.63
2023-04-17T12:16:21.736Z,14.50
2023-04-17T12:18:48.168Z,14.34
2023-04-17T12:21:14.736Z,14.20
2023-04-17T12:23:41.773Z,14.02
2023-04-17T12:26:08.886Z,13.86
2023-04-17T12:28:35.813Z,13.76
2023-04-17T12:31:03.833Z,13.66
2023-04-17T12:33:31.118Z,13.63
2023-04-17T12:35:58.140Z,13.62
2023-04-17T12:38:24.570Z,13.57
2023-04-17T12:40:50.822Z,13.52
2023-04-17T12:43:17.127Z,13.49
2023-04-17T12:45:46.527Z,13.51
2023-04-17T12:48:14.109Z,13.47
2023-04-17T12:50:44.951Z,13.43
2023-04-17T12:53:14.181Z,13.45
2023-04-17T12:55:42.797Z,13.45
2023-04-17T12:58:10.900Z,13.45
2023-04-17T13:00:39.075Z,13.50
2023-04-17T13:03:06.233Z,13.52
2023-04-17T13:05:34.190Z,13.57
2023-04-17T13:08:00.960Z,13.65
2023-04-17T13:10:27.349Z,13.75
2023-04-17T13:12:54.095Z,13.87
2023-04-17T13:15:21.108Z,14.03
2023-04-17T13:17:47.558Z,14.20
2023-04-17T13:20:13.906Z,14.39
2023-04-17T13:22:40.529Z,14.57
2023-04-17T13:25:07.492Z,14.72
2023-04-17T13:27:34.039Z,14.80
2023-04-17T13:30:00.306Z,14.84
2023-04-17T13:32:26.669Z,14.81
2023-04-17T13:34:53.204Z,14.76
2023-04-17T13:37:19.775Z,14.72
2023-04-17T13:39:46.576Z,14.62
2023-04-17T13:42:15.648Z,14.55
2023-04-17T13:44:43.490Z,14.49
2023-04-17T13:47:12.465Z,14.52
2023-04-17T13:49:38.738Z,14.64
2023-04-17T13:52:06.056Z,14.85
2023-04-17T13:54:32.424Z,15.00
2023-04-17T13:57:00.979Z,15.07
2023-04-17T13:59:27.445Z,15.11
2023-04-17T14:01:53.875Z,15.24
2023-04-17T14:04:21.033Z,15.38
2023-04-17T14:06:50.250Z,15.51
2023-04-17T14:09:17.122Z,15.44
2023-04-17T14:11:43.441Z,15.37
2023-04-17T14:14:12.064Z,15.42
2023-04-17T14:16:40.236Z,15.51
2023-04-17T14:21:39.482Z,15.31
2023-04-17T14:24:06.055Z,15.25
2023-04-17T14:26:32.471Z,15.17
2023-04-17T14:28:58.965Z,15.11
2023-04-17T14:31:25.289Z,15.00
2023-04-17T14:33:51.551Z,14.96
2023-04-17T14:36:17.980Z,14.88
2023-04-17T14:38:48.468Z,14.94
2023-04-17T14:41:16.041Z,15.00
2023-04-17T14:43:42.444Z,15.09
2023-04-17T14:46:08.967Z,15.23
2023-04-17T14:48:44.300Z,15.32
2023-04-17T14:51:22.356Z,15.31
2023-04-17T14:53:49.627Z,15.38
2023-04-17T14:56:16.462Z,15.44
2023-04-17T14:58:42.930Z,15.48
2023-04-17T15:01:09.883Z,15.37
2023-04-17T15:03:36.580Z,15.28
2023-04-17T15:06:03.494Z,15.21
2023-04-17T15:08:30.558Z,15.12
2023-04-17T15:10:58.017Z,14.99
2023-04-17T15:13:24.348Z,14.91
2023-04-17T15:15:52.149Z,14.78
2023-04-17T15:18:18.383Z,14.68
2023-04-17T15:20:45.503Z,14.67
2023-04-17T15:23:11.746Z,14.63
2023-04-17T15:25:38.278Z,14.59
2023-04-17T15:28:04.544Z,14.52
2023-04-17T15:30:30.766Z,14.41
2023-04-17T15:32:57.282Z,14.38
2023-04-17T15:35:23.632Z,14.36
2023-04-17T15:37:49.968Z,14.31
2023-04-17T15:40:16.242Z,14.26
2023-04-17T15:42:43.328Z,14.19
2023-04-17T15:45:10.232Z,14.15
2023-04-17T15:47:36.561Z,14.10
2023-04-17T15:50:03.214Z,13.98
2023-04-17T15:52:29.438Z,13.94
2023-04-17T15:54:55.746Z,13.87
2023-04-17T15:57:22.710Z,13.79
2023-04-17T15:59:49.097Z,13.74
2023-04-17T16:02:16.208Z,13.66
2023-04-17T16:04:43.064Z,13.58
2023-04-17T16:07:11.237Z,13.53
2023-04-17T16:09:39.148Z,13.47
2023-04-17T16:12:08.011Z,13.41
2023-04-17T16:14:35.535Z,13.41
2023-04-17T16:17:02.902Z,13.35
2023-04-17T16:19:30.213Z,13.31
2023-04-17T16:21:57.097Z,13.30
2023-04-17T16:24:24.260Z,13.22
2023-04-17T16:26:58.189Z,13.16
2023-04-17T16:29:25.460Z,13.14
2023-04-17T16:31:53.476Z,13.08
2023-04-17T16:34:20.220Z,13.01
2023-04-17T16:36:48.965Z,12.94
2023-04-17T16:39:15.641Z,12.92
2023-04-17T16:41:42.630Z,12.87
2023-04-17T16:44:09.252Z,12.80
2023-04-17T16:46:55.174Z,12.77
2023-04-17T16:49:22.082Z,12.72
2023-04-17T16:51:48.392Z,12.71
2023-04-17T16:54:15.000Z,12.63
2023-04-17T16:56:42.024Z,12.58
2023-04-17T16:59:08.343Z,12.50
2023-04-17T17:01:35.151Z,12.44
2023-04-17T17:04:01.529Z,12.43
2023-04-17T17:06:28.488Z,12.38
2023-04-17T17:08:55.481Z,12.37
2023-04-17T17:11:22.188Z,12.32
2023-04-17T17:13:49.396Z,12.26
2023-04-17T17:16:17.590Z,12.24
2023-04-17T17:18:45.051Z,12.17
2023-04-17T17:21:12.754Z,12.12
2023-04-17T17:23:42.124Z,12.08
2023-04-17T17:26:08.692Z,12.03
2023-04-17T17:28:35.202Z,11.99
2023-04-17T17:31:03.462Z,11.94
2023-04-17T17:33:32.016Z,11.92
2023-04-17T17:35:59.253Z,11.85
2023-04-17T17:38:31.667Z,11.80
2023-04-17T17:40:58.054Z,11.74
2023-04-17T17:43:24.506Z,11.69
2023-04-17T17:45:51.687Z,11.63
2023-04-17T17:48:19.618Z,11.60
2023-04-17T17:50:46.812Z,11.56
2023-04-17T17:53:13.483Z,11.50
2023-04-17T17:55:39.974Z,11.45
2023-04-17T17:58:08.100Z,11.42
2023-04-17T18:00:35.037Z,11.38
2023-04-17T18:03:01.483Z,11.33
2023-04-17T18:05:27.933Z,11.30
2023-04-17T18:07:54.698Z,11.28
2023-04-17T18:10:21.546Z,11.23
2023-04-17T18:12:48.513Z,11.15
2023-04-17T18:15:14.806Z,11.12
2023-04-17T18:17:41.156Z,11.10
2023-04-17T18:20:08.364Z,11.10
2023-04-17T18:22:37.309Z,11.05
2023-04-17T18:25:05.729Z,11.03
2023-04-17T18:27:35.045Z,11.00
2023-04-17T18:30:03.336Z,10.94
2023-04-17T18:32:31.037Z,10.91
2023-04-17T18:34:57.784Z,10.87
2023-04-17T18:37:24.579Z,10.84
2023-04-17T18:39:51.644Z,10.80
2023-04-17T18:42:18.676Z,10.78
2023-04-17T18:44:45.286Z,10.74
2023-04-17T18:47:12.011Z,10.71
2023-04-17T18:49:38.599Z,10.68
2023-04-17T18:52:05.066Z,10.66
2023-04-17T18:54:31.969Z,10.63
2023-04-17T18:56:58.739Z,10.61
2023-04-17T18:59:27.269Z,10.58
2023-04-17T19:01:53.962Z,10.57
2023-04-17T19:04:21.064Z,10.56
2023-04-17T19:06:47.554Z,10.51
2023-04-17T19:09:14.238Z,10.51
2023-04-17T19:11:40.589Z,10.48
2023-04-17T19:14:07.160Z,10.47
2023-04-17T19:16:33.774Z,10.46
2023-04-17T19:19:00.382Z,10.40
2023-04-17T19:21:27.665Z,10.38
2023-04-17T19:23:54.834Z,10.33
2023-04-17T19:26:22.258Z,10.29
2023-04-17T19:28:48.822Z,10.22
2023-04-17T19:31:15.204Z,10.18
2023-04-17T19:33:41.917Z,10.11
2023-04-17T19:36:08.549Z,10.06
2023-04-17T19:38:34.940Z,10.05
2023-04-17T19:41:18.897Z,10.01
2023-04-17T19:43:46.377Z,9.99
2023-04-17T19:46:13.533Z,9.97
2023-04-17T19:48:42.799Z,9.91
2023-04-17T19:51:10.155Z,9.91
2023-04-17T19:53:40.421Z,9.91
2023-04-17T19:56:08.820Z,9.90
2023-04-17T19:58:36.539Z,9.88
2023-04-17T20:01:03.331Z,9.87
2023-04-17T20:03:31.422Z,9.84
2023-04-17T20:05:58.549Z,9.86
2023-04-17T20:08:25.313Z,9.85
2023-04-17T20:10:52.679Z,9.81
2023-04-17T20:13:18.975Z,9.83
2023-04-17T20:15:45.333Z,9.80
2023-04-17T20:18:11.914Z,9.81
2023-04-17T20:20:38.544Z,9.81
2023-04-17T20:23:05.491Z,9.80
2023-04-17T20:25:32.020Z,9.81
2023-04-17T20:27:58.405Z,9.81
2023-04-17T20:30:24.831Z,9.80
2023-04-17T20:32:51.234Z,9.81
2023-04-17T20:35:20.030Z,9.80
2023-04-17T20:37:46.391Z,9.81
2023-04-17T20:40:13.558Z,9.82
2023-04-17T20:42:41.408Z,9.80
2023-04-17T20:45:09.343Z,9.79
2023-04-17T20:47:37.718Z,9.80
2023-04-17T20:50:07.825Z,9.77
2023-04-17T20:52:34.949Z,9.77
2023-04-17T20:55:01.217Z,9.75
2023-04-17T20:57:28.943Z,9.76
2023-04-17T20:59:55.514Z,9.74
2023-04-17T21:02:22.037Z,9.72
2023-04-17T21:04:48.881Z,9.69
2023-04-17T21:07:15.620Z,9.66
2023-04-17T21:09:42.162Z,9.65
2023-04-17T21:12:08.554Z,9.64
2023-04-17T21:14:35.897Z,9.62
2023-04-17T21:17:02.210Z,9.60
2023-04-17T21:19:30.078Z,9.56
2023-04-17T21:21:57.735Z,9.54
2023-04-17T21:24:24.580Z,9.54
2023-04-17T21:26:50.948Z,9.54
2023-04-17T21:29:17.167Z,9.50
2023-04-17T21:31:43.456Z,9.49
2023-04-17T21:34:09.975Z,9.45
2023-04-17T21:36:36.425Z,9.45
2023-04-17T21:39:02.754Z,9.42
2023-04-17T21:41:31.190Z,9.38
2023-04-17T21:44:02.004Z,9.35
2023-04-17T21:46:28.646Z,9.34
2023-04-17T21:48:56.464Z,9.29
2023-04-17T21:51:23.008Z,9.24
2023-04-17T21:53:49.683Z,9.22
2023-04-17T21:56:15.946Z,9.20
2023-04-17T21:58:42.236Z,9.16
2023-04-17T22:01:08.573Z,9.17
2023-04-17T22:03:35.211Z,9.15
2023-04-17T22:06:01.612Z,9.12
2023-04-17T22:08:27.894Z,9.09
2023-04-17T22:10:54.116Z,9.08
2023-04-17T22:13:20.661Z,9.06
2023-04-17T22:15:47.795Z,9.01
2023-04-17T22:18:14.535Z,9.01
2023-04-17T22:20:40.941Z,8.97
2023-04-17T22:23:07.373Z,8.94
2023-04-17T22:25:33.775Z,8.93
2023-04-17T22:28:00.358Z,8.87
2023-04-17T22:30:26.611Z,8.82
2023-04-17T22:32:52.879Z,8.79
2023-04-17T22:35:19.233Z,8.78
2023-04-17T22:37:45.551Z,8.75
2023-04-17T22:40:12.845Z,8.75
2023-04-17T22:42:39.511Z,8.73
2023-04-17T22:45:06.617Z,8.71
2023-04-17T22:47:32.919Z,8.70
2023-04-17T22:49:59.226Z,8.68
2023-04-17T22:52:25.486Z,8.67
2023-04-17T22:54:52.774Z,8.64
2023-04-17T22:57:19.323Z,8.63
2023-04-17T22:59:45.647Z,8.61
2023-04-17T23:02:12.024Z,8.59
2023-04-17T23:04:38.659Z,8.58
2023-04-17T23:07:05.043Z,8.56
2023-04-17T23:09:31.338Z,8.56
2023-04-17T23:11:57.677Z,8.56
2023-04-17T23:14:25.629Z,8.56
2023-04-17T23:16:52.204Z,8.56
2023-04-17T23:19:20.415Z,8.55
2023-04-17T23:21:46.702Z,8.54
2023-04-17T23:24:13.066Z,8.54
2023-04-17T23:26:39.630Z,8.53
2023-04-17T23:29:05.925Z,8.52
2023-04-17T23:31:32.272Z,8.51
2023-04-17T23:33:58.625Z,8.50
2023-04-17T23:36:24.980Z,8.50
2023-04-17T23:38:51.423Z,8.49
2023-04-17T23:41:17.669Z,8.49
2023-04-17T23:43:44.266Z,8.49
2023-04-17T23:46:10.648Z,8.47
2023-04-17T23:48:36.993Z,8.46
2023-04-17T23:51:03.644Z,8.44
2023-04-17T23:53:30.003Z,8.43
2023-04-17T23:55:56.432Z,8.41
2023-04-17T23:58:22.653Z,8.40
